sensor_id;sensor_type;location;lat;lon;timestamp;P1;durP1;ratioP1;P2;durP2;ratioP2
33810;SDS011;20119;48.334;16.206;2022-07-29T00:01:37;6.43;;;4.90;;
33810;SDS011;20119;48.334;16.206;2022-07-29T00:17:03;5.75;;;5.05;;
33810;SDS011;20119;48.334;16.206;2022-07-29T00:19:31;6.75;;;4.80;;
33810;SDS011;20119;48.334;16.206;2022-07-29T00:24:34;6.72;;;4.53;;
33810;SDS011;20119;48.334;16.206;2022-07-29T00:27:06;6.97;;;4.55;;
33810;SDS011;20119;48.334;16.206;2022-07-29T00:32:11;6.95;;;5.07;;
33810;SDS011;20119;48.334;16.206;2022-07-29T00:34:38;8.43;;;5.47;;
33810;SDS011;20119;48.334;16.206;2022-07-29T00:37:26;8.07;;;4.95;;
33810;SDS011;20119;48.334;16.206;2022-07-29T00:39:54;5.50;;;4.85;;
33810;SDS011;20119;48.334;16.206;2022-07-29T00:42:22;5.70;;;5.20;;
33810;SDS011;20119;48.334;16.206;2022-07-29T00:52:47;5.93;;;4.90;;
33810;SDS011;20119;48.334;16.206;2022-07-29T00:55:17;6.00;;;5.40;;
33810;SDS011;20119;48.334;16.206;2022-07-29T00:57:45;6.93;;;5.03;;
33810;SDS011;20119;48.334;16.206;2022-07-29T01:00:13;6.50;;;5.40;;
33810;SDS011;20119;48.334;16.206;2022-07-29T01:02:43;6.47;;;5.80;;
33810;SDS011;20119;48.334;16.206;2022-07-29T01:05:13;9.27;;;5.60;;
33810;SDS011;20119;48.334;16.206;2022-07-29T01:07:43;7.13;;;5.43;;
33810;SDS011;20119;48.334;16.206;2022-07-29T01:10:14;7.68;;;5.70;;
33810;SDS011;20119;48.334;16.206;2022-07-29T01:12:42;7.68;;;6.00;;
33810;SDS011;20119;48.334;16.206;2022-07-29T01:15:13;7.57;;;5.80;;
33810;SDS011;20119;48.334;16.206;2022-07-29T01:17:42;6.45;;;5.68;;
33810;SDS011;20119;48.334;16.206;2022-07-29T01:20:14;5.97;;;5.07;;
33810;SDS011;20119;48.334;16.206;2022-07-29T01:28:42;9.35;;;6.35;;
33810;SDS011;20119;48.334;16.206;2022-07-29T01:31:19;6.37;;;5.77;;
33810;SDS011;20119;48.334;16.206;2022-07-29T01:34:02;6.70;;;6.03;;
33810;SDS011;20119;48.334;16.206;2022-07-29T01:41:54;7.93;;;6.25;;
33810;SDS011;20119;48.334;16.206;2022-07-29T01:44:39;9.00;;;6.93;;
33810;SDS011;20119;48.334;16.206;2022-07-29T01:47:14;6.68;;;6.07;;
33810;SDS011;20119;48.334;16.206;2022-07-29T01:49:47;7.05;;;6.30;;
33810;SDS011;20119;48.334;16.206;2022-07-29T01:52:20;7.20;;;6.50;;
33810;SDS011;20119;48.334;16.206;2022-07-29T01:54:52;8.35;;;6.80;;
33810;SDS011;20119;48.334;16.206;2022-07-29T02:05:11;7.28;;;6.53;;
33810;SDS011;20119;48.334;16.206;2022-07-29T02:33:51;10.13;;;8.45;;
33810;SDS011;20119;48.334;16.206;2022-07-29T02:38:48;10.27;;;8.63;;
33810;SDS011;20119;48.334;16.206;2022-07-29T02:43:54;10.40;;;9.30;;
33810;SDS011;20119;48.334;16.206;2022-07-29T02:46:27;9.90;;;8.80;;
33810;SDS011;20119;48.334;16.206;2022-07-29T02:54:10;10.13;;;8.32;;
33810;SDS011;20119;48.334;16.206;2022-07-29T02:56:44;10.50;;;9.40;;
33810;SDS011;20119;48.334;16.206;2022-07-29T02:59:14;12.27;;;9.55;;
33810;SDS011;20119;48.334;16.206;2022-07-29T03:04:19;9.70;;;8.82;;
33810;SDS011;20119;48.334;16.206;2022-07-29T03:06:51;9.52;;;8.45;;
33810;SDS011;20119;48.334;16.206;2022-07-29T03:14:32;9.48;;;8.50;;
33810;SDS011;20119;48.334;16.206;2022-07-29T03:16:59;10.50;;;8.60;;
33810;SDS011;20119;48.334;16.206;2022-07-29T03:19:27;10.55;;;9.45;;
33810;SDS011;20119;48.334;16.206;2022-07-29T03:21:56;11.68;;;10.30;;
33810;SDS011;20119;48.334;16.206;2022-07-29T03:24:26;10.55;;;9.57;;
33810;SDS011;20119;48.334;16.206;2022-07-29T03:37:21;10.30;;;9.23;;
33810;SDS011;20119;48.334;16.206;2022-07-29T03:39:49;10.73;;;9.77;;
33810;SDS011;20119;48.334;16.206;2022-07-29T03:42:19;11.77;;;9.70;;
33810;SDS011;20119;48.334;16.206;2022-07-29T03:44:47;10.07;;;9.15;;
33810;SDS011;20119;48.334;16.206;2022-07-29T03:47:17;10.32;;;9.32;;
33810;SDS011;20119;48.334;16.206;2022-07-29T03:49:50;10.07;;;9.07;;
33810;SDS011;20119;48.334;16.206;2022-07-29T03:52:23;12.63;;;8.80;;
33810;SDS011;20119;48.334;16.206;2022-07-29T03:54:51;10.38;;;9.27;;
33810;SDS011;20119;48.334;16.206;2022-07-29T03:57:20;10.27;;;9.32;;
33810;SDS011;20119;48.334;16.206;2022-07-29T03:59:50;10.15;;;9.05;;
33810;SDS011;20119;48.334;16.206;2022-07-29T04:02:19;9.97;;;8.97;;
33810;SDS011;20119;48.334;16.206;2022-07-29T04:04:48;12.00;;;9.43;;
33810;SDS011;20119;48.334;16.206;2022-07-29T04:07:15;13.52;;;10.13;;
33810;SDS011;20119;48.334;16.206;2022-07-29T04:09:46;11.05;;;9.90;;
33810;SDS011;20119;48.334;16.206;2022-07-29T04:12:16;12.80;;;9.63;;
33810;SDS011;20119;48.334;16.206;2022-07-29T04:14:46;11.13;;;9.90;;
33810;SDS011;20119;48.334;16.206;2022-07-29T04:17:13;10.82;;;8.85;;
33810;SDS011;20119;48.334;16.206;2022-07-29T04:19:41;9.65;;;8.63;;
33810;SDS011;20119;48.334;16.206;2022-07-29T04:22:08;11.77;;;8.35;;
33810;SDS011;20119;48.334;16.206;2022-07-29T04:24:36;8.38;;;7.47;;
33810;SDS011;20119;48.334;16.206;2022-07-29T04:27:05;10.23;;;7.50;;
33810;SDS011;20119;48.334;16.206;2022-07-29T04:29:35;8.52;;;7.32;;
33810;SDS011;20119;48.334;16.206;2022-07-29T04:32:04;8.75;;;7.35;;
33810;SDS011;20119;48.334;16.206;2022-07-29T04:34:31;10.10;;;6.82;;
33810;SDS011;20119;48.334;16.206;2022-07-29T04:37:00;7.43;;;6.68;;
33810;SDS011;20119;48.334;16.206;2022-07-29T04:39:28;8.45;;;6.45;;
33810;SDS011;20119;48.334;16.206;2022-07-29T04:41:55;8.77;;;7.03;;
33810;SDS011;20119;48.334;16.206;2022-07-29T04:47:00;6.90;;;6.20;;
33810;SDS011;20119;48.334;16.206;2022-07-29T04:49:27;7.10;;;5.68;;
33810;SDS011;20119;48.334;16.206;2022-07-29T04:51:54;7.30;;;6.18;;
33810;SDS011;20119;48.334;16.206;2022-07-29T04:54:23;10.82;;;6.03;;
33810;SDS011;20119;48.334;16.206;2022-07-29T04:56:50;9.30;;;5.97;;
33810;SDS011;20119;48.334;16.206;2022-07-29T04:59:16;9.85;;;6.00;;
33810;SDS011;20119;48.334;16.206;2022-07-29T05:01:44;10.38;;;6.15;;
33810;SDS011;20119;48.334;16.206;2022-07-29T05:04:13;8.77;;;6.32;;
33810;SDS011;20119;48.334;16.206;2022-07-29T05:06:40;10.80;;;7.50;;
33810;SDS011;20119;48.334;16.206;2022-07-29T05:09:10;11.70;;;7.53;;
33810;SDS011;20119;48.334;16.206;2022-07-29T05:11:38;11.52;;;5.93;;
33810;SDS011;20119;48.334;16.206;2022-07-29T05:14:06;7.78;;;5.45;;
33810;SDS011;20119;48.334;16.206;2022-07-29T05:16:33;5.68;;;4.95;;
33810;SDS011;20119;48.334;16.206;2022-07-29T05:19:01;8.02;;;4.97;;
33810;SDS011;20119;48.334;16.206;2022-07-29T05:21:31;7.55;;;4.72;;
33810;SDS011;20119;48.334;16.206;2022-07-29T05:23:59;8.00;;;4.90;;
33810;SDS011;20119;48.334;16.206;2022-07-29T05:26:29;6.63;;;4.82;;
33810;SDS011;20119;48.334;16.206;2022-07-29T05:28:56;8.05;;;4.50;;
33810;SDS011;20119;48.334;16.206;2022-07-29T05:31:24;7.68;;;4.47;;
33810;SDS011;20119;48.334;16.206;2022-07-29T05:33:51;6.50;;;4.50;;
33810;SDS011;20119;48.334;16.206;2022-07-29T05:36:19;9.00;;;4.43;;
33810;SDS011;20119;48.334;16.206;2022-07-29T05:38:48;8.65;;;3.90;;
33810;SDS011;20119;48.334;16.206;2022-07-29T05:43:45;9.85;;;4.18;;
33810;SDS011;20119;48.334;16.206;2022-07-29T05:46:13;7.75;;;4.32;;
33810;SDS011;20119;48.334;16.206;2022-07-29T05:48:41;4.40;;;4.00;;
33810;SDS011;20119;48.334;16.206;2022-07-29T05:51:09;7.25;;;4.25;;
33810;SDS011;20119;48.334;16.206;2022-07-29T05:53:37;8.48;;;4.97;;
33810;SDS011;20119;48.334;16.206;2022-07-29T05:56:07;7.97;;;4.20;;
33810;SDS011;20119;48.334;16.206;2022-07-29T05:58:38;5.63;;;4.40;;
33810;SDS011;20119;48.334;16.206;2022-07-29T06:01:05;5.90;;;3.90;;
33810;SDS011;20119;48.334;16.206;2022-07-29T06:03:32;9.60;;;4.10;;
33810;SDS011;20119;48.334;16.206;2022-07-29T06:06:03;6.18;;;4.40;;
33810;SDS011;20119;48.334;16.206;2022-07-29T06:08:32;4.65;;;3.80;;
33810;SDS011;20119;48.334;16.206;2022-07-29T06:11:00;4.43;;;3.95;;
33810;SDS011;20119;48.334;16.206;2022-07-29T06:13:30;6.47;;;4.40;;
33810;SDS011;20119;48.334;16.206;2022-07-29T06:15:58;7.37;;;3.80;;
33810;SDS011;20119;48.334;16.206;2022-07-29T06:18:28;7.15;;;4.35;;
33810;SDS011;20119;48.334;16.206;2022-07-29T06:20:57;6.15;;;3.78;;
33810;SDS011;20119;48.334;16.206;2022-07-29T06:23:24;5.88;;;3.92;;
33810;SDS011;20119;48.334;16.206;2022-07-29T06:25:51;7.13;;;3.85;;
33810;SDS011;20119;48.334;16.206;2022-07-29T06:28:19;7.10;;;4.43;;
33810;SDS011;20119;48.334;16.206;2022-07-29T06:30:48;6.70;;;4.20;;
33810;SDS011;20119;48.334;16.206;2022-07-29T06:33:16;6.45;;;4.60;;
33810;SDS011;20119;48.334;16.206;2022-07-29T06:38:14;6.40;;;3.95;;
33810;SDS011;20119;48.334;16.206;2022-07-29T06:40:42;5.45;;;4.55;;
33810;SDS011;20119;48.334;16.206;2022-07-29T06:43:31;9.93;;;4.13;;
33810;SDS011;20119;48.334;16.206;2022-07-29T06:46:05;6.45;;;4.68;;
33810;SDS011;20119;48.334;16.206;2022-07-29T06:48:34;8.05;;;4.47;;
33810;SDS011;20119;48.334;16.206;2022-07-29T06:51:03;6.03;;;4.53;;
33810;SDS011;20119;48.334;16.206;2022-07-29T06:53:32;6.50;;;4.30;;
33810;SDS011;20119;48.334;16.206;2022-07-29T06:56:01;6.22;;;4.63;;
33810;SDS011;20119;48.334;16.206;2022-07-29T06:58:30;8.73;;;5.00;;
33810;SDS011;20119;48.334;16.206;2022-07-29T07:01:00;10.75;;;4.70;;
33810;SDS011;20119;48.334;16.206;2022-07-29T07:03:32;6.28;;;4.50;;
33810;SDS011;20119;48.334;16.206;2022-07-29T07:08:28;6.55;;;4.25;;
33810;SDS011;20119;48.334;16.206;2022-07-29T07:10:56;7.28;;;4.10;;
33810;SDS011;20119;48.334;16.206;2022-07-29T07:13:23;6.15;;;4.20;;
33810;SDS011;20119;48.334;16.206;2022-07-29T07:15:51;8.48;;;4.60;;
33810;SDS011;20119;48.334;16.206;2022-07-29T07:18:19;5.75;;;4.57;;
33810;SDS011;20119;48.334;16.206;2022-07-29T07:20:48;6.43;;;4.85;;
33810;SDS011;20119;48.334;16.206;2022-07-29T07:23:16;8.30;;;4.55;;
33810;SDS011;20119;48.334;16.206;2022-07-29T07:25:46;7.93;;;4.85;;
33810;SDS011;20119;48.334;16.206;2022-07-29T07:28:15;7.05;;;4.93;;
33810;SDS011;20119;48.334;16.206;2022-07-29T07:30:44;6.18;;;4.50;;
33810;SDS011;20119;48.334;16.206;2022-07-29T07:33:11;5.63;;;4.63;;
33810;SDS011;20119;48.334;16.206;2022-07-29T07:35:39;6.65;;;5.13;;
33810;SDS011;20119;48.334;16.206;2022-07-29T07:38:08;7.20;;;5.00;;
33810;SDS011;20119;48.334;16.206;2022-07-29T07:40:38;6.78;;;5.00;;
33810;SDS011;20119;48.334;16.206;2022-07-29T07:43:07;6.78;;;4.88;;
33810;SDS011;20119;48.334;16.206;2022-07-29T07:45:36;6.45;;;4.80;;
33810;SDS011;20119;48.334;16.206;2022-07-29T07:48:05;6.60;;;5.00;;
33810;SDS011;20119;48.334;16.206;2022-07-29T07:50:35;6.40;;;4.82;;
33810;SDS011;20119;48.334;16.206;2022-07-29T07:53:02;6.38;;;4.45;;
33810;SDS011;20119;48.334;16.206;2022-07-29T07:55:32;9.52;;;4.30;;
33810;SDS011;20119;48.334;16.206;2022-07-29T07:58:00;9.45;;;4.05;;
33810;SDS011;20119;48.334;16.206;2022-07-29T08:00:27;5.15;;;4.65;;
33810;SDS011;20119;48.334;16.206;2022-07-29T08:02:55;8.77;;;4.85;;
33810;SDS011;20119;48.334;16.206;2022-07-29T08:05:22;6.93;;;4.55;;
33810;SDS011;20119;48.334;16.206;2022-07-29T08:07:51;5.93;;;4.32;;
33810;SDS011;20119;48.334;16.206;2022-07-29T08:10:19;5.57;;;4.25;;
33810;SDS011;20119;48.334;16.206;2022-07-29T08:13:05;5.55;;;4.20;;
33810;SDS011;20119;48.334;16.206;2022-07-29T08:15:34;5.13;;;4.20;;
33810;SDS011;20119;48.334;16.206;2022-07-29T08:18:02;8.10;;;4.75;;
33810;SDS011;20119;48.334;16.206;2022-07-29T08:20:29;8.32;;;4.45;;
33810;SDS011;20119;48.334;16.206;2022-07-29T08:22:59;6.85;;;4.97;;
33810;SDS011;20119;48.334;16.206;2022-07-29T08:25:27;8.50;;;4.40;;
33810;SDS011;20119;48.334;16.206;2022-07-29T08:27:56;7.00;;;4.30;;
33810;SDS011;20119;48.334;16.206;2022-07-29T08:30:26;6.43;;;4.18;;
33810;SDS011;20119;48.334;16.206;2022-07-29T08:32:53;8.50;;;4.32;;
33810;SDS011;20119;48.334;16.206;2022-07-29T08:35:20;8.20;;;4.35;;
33810;SDS011;20119;48.334;16.206;2022-07-29T08:37:49;10.20;;;4.80;;
33810;SDS011;20119;48.334;16.206;2022-07-29T08:40:17;6.68;;;3.90;;
33810;SDS011;20119;48.334;16.206;2022-07-29T08:42:45;7.85;;;4.20;;
33810;SDS011;20119;48.334;16.206;2022-07-29T08:45:13;8.90;;;4.00;;
33810;SDS011;20119;48.334;16.206;2022-07-29T08:47:43;4.47;;;3.92;;
33810;SDS011;20119;48.334;16.206;2022-07-29T08:50:11;8.57;;;4.20;;
33810;SDS011;20119;48.334;16.206;2022-07-29T08:52:39;5.25;;;3.75;;
33810;SDS011;20119;48.334;16.206;2022-07-29T08:55:07;5.72;;;3.88;;
33810;SDS011;20119;48.334;16.206;2022-07-29T08:57:38;11.93;;;4.00;;
33810;SDS011;20119;48.334;16.206;2022-07-29T09:00:07;5.53;;;3.95;;
33810;SDS011;20119;48.334;16.206;2022-07-29T09:02:39;4.90;;;4.22;;
33810;SDS011;20119;48.334;16.206;2022-07-29T09:05:14;7.20;;;4.07;;
33810;SDS011;20119;48.334;16.206;2022-07-29T09:07:42;6.05;;;3.60;;
33810;SDS011;20119;48.334;16.206;2022-07-29T09:10:15;6.78;;;4.35;;
33810;SDS011;20119;48.334;16.206;2022-07-29T09:12:43;8.70;;;4.03;;
33810;SDS011;20119;48.334;16.206;2022-07-29T09:15:13;6.60;;;4.45;;
33810;SDS011;20119;48.334;16.206;2022-07-29T09:17:40;8.50;;;4.63;;
33810;SDS011;20119;48.334;16.206;2022-07-29T09:20:11;9.43;;;4.50;;
33810;SDS011;20119;48.334;16.206;2022-07-29T09:22:39;9.80;;;4.63;;
33810;SDS011;20119;48.334;16.206;2022-07-29T09:25:07;9.27;;;4.75;;
33810;SDS011;20119;48.334;16.206;2022-07-29T09:27:38;6.90;;;4.35;;
33810;SDS011;20119;48.334;16.206;2022-07-29T09:30:06;9.23;;;4.63;;
33810;SDS011;20119;48.334;16.206;2022-07-29T09:35:25;7.22;;;4.25;;
33810;SDS011;20119;48.334;16.206;2022-07-29T09:37:54;5.07;;;3.95;;
33810;SDS011;20119;48.334;16.206;2022-07-29T09:40:25;6.28;;;4.30;;
33810;SDS011;20119;48.334;16.206;2022-07-29T09:42:53;10.02;;;4.43;;
33810;SDS011;20119;48.334;16.206;2022-07-29T09:45:29;6.13;;;4.43;;
33810;SDS011;20119;48.334;16.206;2022-07-29T09:47:58;5.90;;;4.05;;
33810;SDS011;20119;48.334;16.206;2022-07-29T09:50:41;7.30;;;3.90;;
33810;SDS011;20119;48.334;16.206;2022-07-29T09:53:11;9.60;;;4.60;;
33810;SDS011;20119;48.334;16.206;2022-07-29T09:55:45;4.57;;;4.18;;
33810;SDS011;20119;48.334;16.206;2022-07-29T09:58:15;5.57;;;4.57;;
33810;SDS011;20119;48.334;16.206;2022-07-29T10:00:47;6.65;;;4.38;;
33810;SDS011;20119;48.334;16.206;2022-07-29T10:03:16;6.57;;;4.10;;
33810;SDS011;20119;48.334;16.206;2022-07-29T10:05:47;6.10;;;4.50;;
33810;SDS011;20119;48.334;16.206;2022-07-29T10:08:31;6.10;;;4.40;;
33810;SDS011;20119;48.334;16.206;2022-07-29T10:11:08;6.38;;;4.70;;
33810;SDS011;20119;48.334;16.206;2022-07-29T10:13:37;7.82;;;4.53;;
33810;SDS011;20119;48.334;16.206;2022-07-29T10:16:05;9.15;;;4.43;;
33810;SDS011;20119;48.334;16.206;2022-07-29T10:18:33;9.02;;;5.10;;
33810;SDS011;20119;48.334;16.206;2022-07-29T10:21:05;7.68;;;4.70;;
33810;SDS011;20119;48.334;16.206;2022-07-29T10:23:33;8.95;;;4.80;;
33810;SDS011;20119;48.334;16.206;2022-07-29T10:26:01;6.90;;;4.78;;
33810;SDS011;20119;48.334;16.206;2022-07-29T10:28:29;5.97;;;4.15;;
33810;SDS011;20119;48.334;16.206;2022-07-29T10:30:59;7.05;;;4.35;;
33810;SDS011;20119;48.334;16.206;2022-07-29T10:33:34;7.50;;;4.20;;
33810;SDS011;20119;48.334;16.206;2022-07-29T10:36:18;7.35;;;4.50;;
33810;SDS011;20119;48.334;16.206;2022-07-29T10:38:55;6.32;;;4.50;;
33810;SDS011;20119;48.334;16.206;2022-07-29T10:41:37;7.40;;;4.50;;
33810;SDS011;20119;48.334;16.206;2022-07-29T10:44:15;8.70;;;4.70;;
33810;SDS011;20119;48.334;16.206;2022-07-29T10:46:45;6.60;;;4.35;;
33810;SDS011;20119;48.334;16.206;2022-07-29T10:49:13;6.15;;;4.63;;
33810;SDS011;20119;48.334;16.206;2022-07-29T10:51:56;7.57;;;4.88;;
33810;SDS011;20119;48.334;16.206;2022-07-29T10:54:43;12.35;;;5.00;;
33810;SDS011;20119;48.334;16.206;2022-07-29T11:02:58;8.93;;;4.15;;
33810;SDS011;20119;48.334;16.206;2022-07-29T11:05:26;8.73;;;4.45;;
33810;SDS011;20119;48.334;16.206;2022-07-29T11:10:48;6.57;;;4.13;;
33810;SDS011;20119;48.334;16.206;2022-07-29T11:16:15;5.80;;;4.72;;
33810;SDS011;20119;48.334;16.206;2022-07-29T11:21:50;5.72;;;4.30;;
33810;SDS011;20119;48.334;16.206;2022-07-29T11:24:21;5.70;;;4.13;;
33810;SDS011;20119;48.334;16.206;2022-07-29T11:27:08;4.88;;;3.80;;
33810;SDS011;20119;48.334;16.206;2022-07-29T11:29:46;6.60;;;4.63;;
33810;SDS011;20119;48.334;16.206;2022-07-29T11:32:19;6.67;;;5.07;;
33810;SDS011;20119;48.334;16.206;2022-07-29T11:34:48;5.27;;;4.37;;
33810;SDS011;20119;48.334;16.206;2022-07-29T11:37:25;7.05;;;3.95;;
33810;SDS011;20119;48.334;16.206;2022-07-29T11:42:47;6.55;;;4.18;;
33810;SDS011;20119;48.334;16.206;2022-07-29T11:45:22;7.68;;;4.10;;
33810;SDS011;20119;48.334;16.206;2022-07-29T11:47:54;5.95;;;4.38;;
33810;SDS011;20119;48.334;16.206;2022-07-29T11:50:27;8.18;;;3.95;;
33810;SDS011;20119;48.334;16.206;2022-07-29T11:53:01;5.03;;;3.53;;
33810;SDS011;20119;48.334;16.206;2022-07-29T11:55:38;6.07;;;4.20;;
33810;SDS011;20119;48.334;16.206;2022-07-29T11:58:05;5.68;;;4.15;;
33810;SDS011;20119;48.334;16.206;2022-07-29T12:00:34;5.60;;;4.15;;
33810;SDS011;20119;48.334;16.206;2022-07-29T12:03:04;6.93;;;4.20;;
33810;SDS011;20119;48.334;16.206;2022-07-29T12:05:37;6.10;;;4.20;;
33810;SDS011;20119;48.334;16.206;2022-07-29T12:08:08;4.30;;;3.90;;
33810;SDS011;20119;48.334;16.206;2022-07-29T12:10:39;7.20;;;4.18;;
33810;SDS011;20119;48.334;16.206;2022-07-29T12:15:35;5.65;;;4.30;;
33810;SDS011;20119;48.334;16.206;2022-07-29T12:18:10;5.72;;;4.10;;
33810;SDS011;20119;48.334;16.206;2022-07-29T12:20:43;5.15;;;4.00;;
33810;SDS011;20119;48.334;16.206;2022-07-29T12:23:12;6.13;;;3.70;;
33810;SDS011;20119;48.334;16.206;2022-07-29T12:25:43;7.38;;;4.10;;
33810;SDS011;20119;48.334;16.206;2022-07-29T12:28:12;6.72;;;4.18;;
33810;SDS011;20119;48.334;16.206;2022-07-29T12:30:42;6.03;;;4.03;;
33810;SDS011;20119;48.334;16.206;2022-07-29T12:33:12;4.90;;;3.80;;
33810;SDS011;20119;48.334;16.206;2022-07-29T12:35:46;4.43;;;3.83;;
33810;SDS011;20119;48.334;16.206;2022-07-29T12:38:17;7.82;;;4.00;;
33810;SDS011;20119;48.334;16.206;2022-07-29T12:40:47;3.75;;;3.40;;
33810;SDS011;20119;48.334;16.206;2022-07-29T12:43:18;5.63;;;3.70;;
33810;SDS011;20119;48.334;16.206;2022-07-29T12:45:47;5.60;;;3.70;;
33810;SDS011;20119;48.334;16.206;2022-07-29T12:50:52;6.03;;;3.70;;
33810;SDS011;20119;48.334;16.206;2022-07-29T12:53:25;4.65;;;3.45;;
33810;SDS011;20119;48.334;16.206;2022-07-29T12:55:55;4.18;;;3.60;;
33810;SDS011;20119;48.334;16.206;2022-07-29T12:58:30;4.30;;;3.90;;
33810;SDS011;20119;48.334;16.206;2022-07-29T13:01:00;5.28;;;3.50;;
33810;SDS011;20119;48.334;16.206;2022-07-29T13:03:40;8.20;;;3.65;;
33810;SDS011;20119;48.334;16.206;2022-07-29T13:06:27;4.88;;;3.50;;
33810;SDS011;20119;48.334;16.206;2022-07-29T13:08:59;9.30;;;3.47;;
33810;SDS011;20119;48.334;16.206;2022-07-29T13:11:30;4.75;;;3.55;;
33810;SDS011;20119;48.334;16.206;2022-07-29T13:13:58;4.78;;;3.45;;
33810;SDS011;20119;48.334;16.206;2022-07-29T13:16:26;5.32;;;3.78;;
33810;SDS011;20119;48.334;16.206;2022-07-29T13:19:04;4.30;;;3.75;;
33810;SDS011;20119;48.334;16.206;2022-07-29T13:21:34;4.55;;;3.45;;
33810;SDS011;20119;48.334;16.206;2022-07-29T13:24:02;4.38;;;3.97;;
33810;SDS011;20119;48.334;16.206;2022-07-29T13:26:33;4.25;;;3.80;;
33810;SDS011;20119;48.334;16.206;2022-07-29T13:29:01;4.78;;;4.00;;
33810;SDS011;20119;48.334;16.206;2022-07-29T13:31:28;3.83;;;3.50;;
33810;SDS011;20119;48.334;16.206;2022-07-29T13:33:59;4.20;;;3.80;;
33810;SDS011;20119;48.334;16.206;2022-07-29T13:36:27;4.55;;;4.15;;
33810;SDS011;20119;48.334;16.206;2022-07-29T13:38:57;4.40;;;4.00;;
33810;SDS011;20119;48.334;16.206;2022-07-29T13:41:26;6.53;;;4.10;;
33810;SDS011;20119;48.334;16.206;2022-07-29T13:43:55;5.78;;;4.53;;
33810;SDS011;20119;48.334;16.206;2022-07-29T13:46:22;12.93;;;6.13;;
33810;SDS011;20119;48.334;16.206;2022-07-29T13:48:50;8.98;;;4.90;;
33810;SDS011;20119;48.334;16.206;2022-07-29T13:51:20;9.10;;;4.47;;
33810;SDS011;20119;48.334;16.206;2022-07-29T13:53:47;7.22;;;4.75;;
33810;SDS011;20119;48.334;16.206;2022-07-29T13:56:15;8.77;;;5.53;;
33810;SDS011;20119;48.334;16.206;2022-07-29T13:58:42;15.90;;;6.15;;
33810;SDS011;20119;48.334;16.206;2022-07-29T14:01:11;9.73;;;6.63;;
33810;SDS011;20119;48.334;16.206;2022-07-29T14:03:38;14.50;;;7.78;;
33810;SDS011;20119;48.334;16.206;2022-07-29T14:06:08;14.15;;;8.23;;
33810;SDS011;20119;48.334;16.206;2022-07-29T14:08:36;10.35;;;8.38;;
33810;SDS011;20119;48.334;16.206;2022-07-29T14:11:04;11.40;;;8.15;;
33810;SDS011;20119;48.334;16.206;2022-07-29T14:13:32;10.75;;;8.88;;
33810;SDS011;20119;48.334;16.206;2022-07-29T14:15:59;11.02;;;8.90;;
33810;SDS011;20119;48.334;16.206;2022-07-29T14:18:28;9.68;;;8.68;;
33810;SDS011;20119;48.334;16.206;2022-07-29T14:20:56;13.02;;;9.50;;
33810;SDS011;20119;48.334;16.206;2022-07-29T14:23:24;13.13;;;9.38;;
33810;SDS011;20119;48.334;16.206;2022-07-29T14:25:51;12.02;;;9.70;;
33810;SDS011;20119;48.334;16.206;2022-07-29T14:28:19;11.45;;;9.52;;
33810;SDS011;20119;48.334;16.206;2022-07-29T14:30:47;11.35;;;9.73;;
33810;SDS011;20119;48.334;16.206;2022-07-29T14:33:16;11.80;;;10.13;;
33810;SDS011;20119;48.334;16.206;2022-07-29T14:35:46;12.18;;;10.82;;
33810;SDS011;20119;48.334;16.206;2022-07-29T14:38:13;10.73;;;9.73;;
33810;SDS011;20119;48.334;16.206;2022-07-29T14:40:40;13.00;;;10.50;;
33810;SDS011;20119;48.334;16.206;2022-07-29T14:43:08;12.48;;;9.63;;
33810;SDS011;20119;48.334;16.206;2022-07-29T14:45:35;9.38;;;7.82;;
33810;SDS011;20119;48.334;16.206;2022-07-29T14:48:03;9.93;;;9.02;;
33810;SDS011;20119;48.334;16.206;2022-07-29T14:50:31;11.60;;;8.52;;
33810;SDS011;20119;48.334;16.206;2022-07-29T14:53:00;9.07;;;8.07;;
33810;SDS011;20119;48.334;16.206;2022-07-29T14:55:27;9.30;;;8.07;;
33810;SDS011;20119;48.334;16.206;2022-07-29T14:57:55;8.98;;;8.07;;
33810;SDS011;20119;48.334;16.206;2022-07-29T15:00:23;10.40;;;8.65;;
33810;SDS011;20119;48.334;16.206;2022-07-29T15:02:51;9.82;;;8.25;;
33810;SDS011;20119;48.334;16.206;2022-07-29T15:05:25;12.93;;;11.63;;
33810;SDS011;20119;48.334;16.206;2022-07-29T15:07:52;11.38;;;9.68;;
33810;SDS011;20119;48.334;16.206;2022-07-29T15:10:21;10.60;;;9.48;;
33810;SDS011;20119;48.334;16.206;2022-07-29T15:12:51;11.48;;;9.00;;
33810;SDS011;20119;48.334;16.206;2022-07-29T15:15:18;9.60;;;8.70;;
33810;SDS011;20119;48.334;16.206;2022-07-29T15:17:46;10.00;;;9.00;;
33810;SDS011;20119;48.334;16.206;2022-07-29T15:20:15;8.73;;;7.95;;
33810;SDS011;20119;48.334;16.206;2022-07-29T15:22:42;8.50;;;7.70;;
33810;SDS011;20119;48.334;16.206;2022-07-29T15:25:10;9.07;;;8.27;;
33810;SDS011;20119;48.334;16.206;2022-07-29T15:27:40;9.43;;;8.07;;
33810;SDS011;20119;48.334;16.206;2022-07-29T15:30:08;9.85;;;9.02;;
33810;SDS011;20119;48.334;16.206;2022-07-29T15:32:36;9.63;;;8.77;;
33810;SDS011;20119;48.334;16.206;2022-07-29T15:35:04;10.80;;;9.55;;
33810;SDS011;20119;48.334;16.206;2022-07-29T15:37:32;9.88;;;8.88;;
33810;SDS011;20119;48.334;16.206;2022-07-29T15:40:00;10.05;;;9.10;;
33810;SDS011;20119;48.334;16.206;2022-07-29T15:42:29;9.18;;;8.02;;
33810;SDS011;20119;48.334;16.206;2022-07-29T15:44:58;9.98;;;9.07;;
33810;SDS011;20119;48.334;16.206;2022-07-29T15:47:28;10.18;;;9.18;;
33810;SDS011;20119;48.334;16.206;2022-07-29T15:49:55;12.20;;;9.00;;
33810;SDS011;20119;48.334;16.206;2022-07-29T15:52:23;9.57;;;8.68;;
33810;SDS011;20119;48.334;16.206;2022-07-29T15:54:50;10.00;;;9.13;;
33810;SDS011;20119;48.334;16.206;2022-07-29T15:57:19;10.43;;;9.43;;
33810;SDS011;20119;48.334;16.206;2022-07-29T15:59:46;10.25;;;9.25;;
33810;SDS011;20119;48.334;16.206;2022-07-29T16:02:15;11.43;;;10.23;;
33810;SDS011;20119;48.334;16.206;2022-07-29T16:04:43;11.38;;;10.25;;
33810;SDS011;20119;48.334;16.206;2022-07-29T16:07:11;10.88;;;9.88;;
33810;SDS011;20119;48.334;16.206;2022-07-29T16:09:43;10.63;;;9.63;;
33810;SDS011;20119;48.334;16.206;2022-07-29T16:12:11;10.40;;;9.43;;
33810;SDS011;20119;48.334;16.206;2022-07-29T16:14:38;9.57;;;8.70;;
33810;SDS011;20119;48.334;16.206;2022-07-29T16:17:05;9.68;;;8.80;;
33810;SDS011;20119;48.334;16.206;2022-07-29T16:19:35;9.75;;;8.85;;
33810;SDS011;20119;48.334;16.206;2022-07-29T16:22:04;10.60;;;8.98;;
33810;SDS011;20119;48.334;16.206;2022-07-29T16:24:33;9.23;;;8.32;;
33810;SDS011;20119;48.334;16.206;2022-07-29T16:27:01;9.43;;;8.40;;
33810;SDS011;20119;48.334;16.206;2022-07-29T16:29:29;8.95;;;8.13;;
33810;SDS011;20119;48.334;16.206;2022-07-29T16:31:57;8.63;;;7.72;;
33810;SDS011;20119;48.334;16.206;2022-07-29T16:34:23;8.55;;;7.63;;
33810;SDS011;20119;48.334;16.206;2022-07-29T16:36:52;9.25;;;8.30;;
33810;SDS011;20119;48.334;16.206;2022-07-29T16:39:19;8.60;;;7.70;;
33810;SDS011;20119;48.334;16.206;2022-07-29T16:41:47;8.65;;;7.75;;
33810;SDS011;20119;48.334;16.206;2022-07-29T16:44:15;10.43;;;8.60;;
33810;SDS011;20119;48.334;16.206;2022-07-29T16:46:42;12.25;;;9.80;;
33810;SDS011;20119;48.334;16.206;2022-07-29T16:49:10;14.20;;;10.88;;
33810;SDS011;20119;48.334;16.206;2022-07-29T16:51:37;16.90;;;12.43;;
33810;SDS011;20119;48.334;16.206;2022-07-29T16:54:07;13.63;;;10.55;;
33810;SDS011;20119;48.334;16.206;2022-07-29T16:56:34;13.70;;;10.38;;
33810;SDS011;20119;48.334;16.206;2022-07-29T16:59:02;14.68;;;10.35;;
33810;SDS011;20119;48.334;16.206;2022-07-29T17:01:31;11.35;;;9.10;;